sensor_id;sensor_type;location;lat;lon;timestamp;temperature;humidity
62904;DHT22;49000;50.698;13.322;2023-02-12T00:02:03;3.50;99.90
62904;DHT22;49000;50.698;13.322;2023-02-12T00:04:29;3.50;99.90
62904;DHT22;49000;50.698;13.322;2023-02-12T00:06:55;2.90;99.90
62904;DHT22;49000;50.698;13.322;2023-02-12T00:09:20;3.00;99.90
62904;DHT22;49000;50.698;13.322;2023-02-12T00:11:45;3.40;99.90
62904;DHT22;49000;50.698;13.322;2023-02-12T00:14:11;3.40;99.90
62904;DHT22;49000;50.698;13.322;2023-02-12T00:16:36;3.10;99.90
62904;DHT22;49000;50.698;13.322;2023-02-12T00:19:02;3.40;99.90
62904;DHT22;49000;50.698;13.322;2023-02-12T00:21:28;3.40;99.90
62904;DHT22;49000;50.698;13.322;2023-02-12T00:23:54;3.50;99.90
62904;DHT22;49000;50.698;13.322;2023-02-12T00:26:21;2.90;99.90
62904;DHT22;49000;50.698;13.322;2023-02-12T00:28:47;3.30;99.90
62904;DHT22;49000;50.698;13.322;2023-02-12T00:31:22;3.10;99.90
62904;DHT22;49000;50.698;13.322;2023-02-12T00:33:48;3.30;99.90
62904;DHT22;49000;50.698;13.322;2023-02-12T00:36:16;3.40;99.90
62904;DHT22;49000;50.698;13.322;2023-02-12T00:38:42;3.50;99.90
62904;DHT22;49000;50.698;13.322;2023-02-12T00:41:08;3.20;99.90
62904;DHT22;49000;50.698;13.322;2023-02-12T00:43:33;3.10;99.90
62904;DHT22;49000;50.698;13.322;2023-02-12T00:45:59;3.00;99.90
62904;DHT22;49000;50.698;13.322;2023-02-12T00:48:25;3.60;99.90
62904;DHT22;49000;50.698;13.322;2023-02-12T00:50:50;3.60;99.90
62904;DHT22;49000;50.698;13.322;2023-02-12T00:53:16;3.50;99.90
62904;DHT22;49000;50.698;13.322;2023-02-12T00:55:41;3.40;99.90
62904;DHT22;49000;50.698;13.322;2023-02-12T00:58:07;3.20;99.90
62904;DHT22;49000;50.698;13.322;2023-02-12T01:00:33;3.10;99.90
62904;DHT22;49000;50.698;13.322;2023-02-12T01:02:59;3.30;99.90
62904;DHT22;49000;50.698;13.322;2023-02-12T01:05:25;3.10;99.90
62904;DHT22;49000;50.698;13.322;2023-02-12T01:07:52;3.30;99.90
62904;DHT22;49000;50.698;13.322;2023-02-12T01:10:18;3.20;99.90
62904;DHT22;49000;50.698;13.322;2023-02-12T01:12:45;3.30;99.90
62904;DHT22;49000;50.698;13.322;2023-02-12T01:15:11;3.30;99.90
62904;DHT22;49000;50.698;13.322;2023-02-12T01:17:37;3.00;99.90
62904;DHT22;49000;50.698;13.322;2023-02-12T01:20:02;3.40;99.90
62904;DHT22;49000;50.698;13.322;2023-02-12T01:22:30;3.50;99.90
62904;DHT22;49000;50.698;13.322;2023-02-12T01:24:56;3.50;99.90
62904;DHT22;49000;50.698;13.322;2023-02-12T01:27:21;3.40;99.90
62904;DHT22;49000;50.698;13.322;2023-02-12T01:29:46;3.30;99.90
62904;DHT22;49000;50.698;13.322;2023-02-12T01:32:12;3.40;99.90
62904;DHT22;49000;50.698;13.322;2023-02-12T01:34:37;3.40;99.90
62904;DHT22;49000;50.698;13.322;2023-02-12T01:37:03;3.50;99.90
62904;DHT22;49000;50.698;13.322;2023-02-12T01:39:29;3.70;99.90
62904;DHT22;49000;50.698;13.322;2023-02-12T01:41:54;3.50;99.90
62904;DHT22;49000;50.698;13.322;2023-02-12T01:44:22;3.30;99.90
62904;DHT22;49000;50.698;13.322;2023-02-12T01:47:00;3.60;99.90
62904;DHT22;49000;50.698;13.322;2023-02-12T01:49:36;3.50;99.90
62904;DHT22;49000;50.698;13.322;2023-02-12T01:52:11;3.30;99.90
62904;DHT22;49000;50.698;13.322;2023-02-12T01:54:37;3.50;99.90
62904;DHT22;49000;50.698;13.322;2023-02-12T01:57:05;3.50;99.90
62904;DHT22;49000;50.698;13.322;2023-02-12T01:59:32;3.40;99.90
62904;DHT22;49000;50.698;13.322;2023-02-12T02:01:59;3.00;99.90
62904;DHT22;49000;50.698;13.322;2023-02-12T02:04:28;3.40;99.90
62904;DHT22;49000;50.698;13.322;2023-02-12T02:09:23;3.50;99.90
62904;DHT22;49000;50.698;13.322;2023-02-12T02:11:49;3.40;99.90
62904;DHT22;49000;50.698;13.322;2023-02-12T02:14:41;3.60;99.90
62904;DHT22;49000;50.698;13.322;2023-02-12T02:22:42;3.30;99.90
62904;DHT22;49000;50.698;13.322;2023-02-12T02:25:49;3.40;99.90
62904;DHT22;49000;50.698;13.322;2023-02-12T02:32:05;3.50;99.90
62904;DHT22;49000;50.698;13.322;2023-02-12T02:38:05;3.60;99.90
62904;DHT22;49000;50.698;13.322;2023-02-12T02:41:14;3.30;99.90
62904;DHT22;49000;50.698;13.322;2023-02-12T02:43:43;3.50;99.90
62904;DHT22;49000;50.698;13.322;2023-02-12T02:46:31;3.40;99.90
62904;DHT22;49000;50.698;13.322;2023-02-12T02:49:05;3.50;99.90
62904;DHT22;49000;50.698;13.322;2023-02-12T02:51:35;3.00;99.90
62904;DHT22;49000;50.698;13.322;2023-02-12T02:54:07;3.40;99.90
62904;DHT22;49000;50.698;13.322;2023-02-12T02:56:37;3.70;99.90
62904;DHT22;49000;50.698;13.322;2023-02-12T02:59:27;3.20;99.90
62904;DHT22;49000;50.698;13.322;2023-02-12T03:01:55;3.60;99.90
62904;DHT22;49000;50.698;13.322;2023-02-12T03:04:34;3.50;99.90
62904;DHT22;49000;50.698;13.322;2023-02-12T03:07:07;3.50;99.90
62904;DHT22;49000;50.698;13.322;2023-02-12T03:09:40;3.50;99.90
62904;DHT22;49000;50.698;13.322;2023-02-12T03:12:13;3.00;99.90
62904;DHT22;49000;50.698;13.322;2023-02-12T03:14:45;3.20;99.90
62904;DHT22;49000;50.698;13.322;2023-02-12T03:17:22;3.50;99.90
62904;DHT22;49000;50.698;13.322;2023-02-12T03:19:56;3.50;99.90
62904;DHT22;49000;50.698;13.322;2023-02-12T03:22:28;3.60;99.90
62904;DHT22;49000;50.698;13.322;2023-02-12T03:25:01;2.90;99.90
62904;DHT22;49000;50.698;13.322;2023-02-12T03:27:36;3.40;99.90
62904;DHT22;49000;50.698;13.322;2023-02-12T03:30:03;3.10;99.90
62904;DHT22;49000;50.698;13.322;2023-02-12T03:32:32;3.40;99.90
62904;DHT22;49000;50.698;13.322;2023-02-12T03:35:12;3.10;99.90
62904;DHT22;49000;50.698;13.322;2023-02-12T03:40:33;3.50;99.90
62904;DHT22;49000;50.698;13.322;2023-02-12T03:43:29;3.50;99.90
62904;DHT22;49000;50.698;13.322;2023-02-12T03:46:07;3.50;99.90
62904;DHT22;49000;50.698;13.322;2023-02-12T03:48:55;3.50;99.90
62904;DHT22;49000;50.698;13.322;2023-02-12T03:51:29;3.40;99.90
62904;DHT22;49000;50.698;13.322;2023-02-12T03:53:57;3.40;99.90
62904;DHT22;49000;50.698;13.322;2023-02-12T03:56:43;3.70;99.90
62904;DHT22;49000;50.698;13.322;2023-02-12T03:59:10;3.50;99.90
62904;DHT22;49000;50.698;13.322;2023-02-12T04:01:36;3.70;99.90
62904;DHT22;49000;50.698;13.322;2023-02-12T04:04:04;3.50;99.90
62904;DHT22;49000;50.698;13.322;2023-02-12T04:06:29;3.10;99.90
62904;DHT22;49000;50.698;13.322;2023-02-12T04:09:00;3.40;99.90
62904;DHT22;49000;50.698;13.322;2023-02-12T04:14:21;3.40;99.90
62904;DHT22;49000;50.698;13.322;2023-02-12T04:17:13;3.30;99.90
62904;DHT22;49000;50.698;13.322;2023-02-12T04:22:23;3.50;99.90
62904;DHT22;49000;50.698;13.322;2023-02-12T04:25:10;3.50;99.90
62904;DHT22;49000;50.698;13.322;2023-02-12T04:30:28;3.40;99.90
62904;DHT22;49000;50.698;13.322;2023-02-12T04:32:59;3.40;99.90
62904;DHT22;49000;50.698;13.322;2023-02-12T04:35:39;3.20;99.90
62904;DHT22;49000;50.698;13.322;2023-02-12T04:40:47;3.50;99.90
62904;DHT22;49000;50.698;13.322;2023-02-12T04:43:13;3.40;99.90
62904;DHT22;49000;50.698;13.322;2023-02-12T04:45:38;3.40;99.90
62904;DHT22;49000;50.698;13.322;2023-02-12T04:48:04;3.50;99.90
62904;DHT22;49000;50.698;13.322;2023-02-12T04:50:41;3.40;99.90
62904;DHT22;49000;50.698;13.322;2023-02-12T04:53:08;3.40;99.90
62904;DHT22;49000;50.698;13.322;2023-02-12T04:55:34;3.50;99.90
62904;DHT22;49000;50.698;13.322;2023-02-12T04:57:59;3.00;99.90
62904;DHT22;49000;50.698;13.322;2023-02-12T05:00:25;2.90;99.90
62904;DHT22;49000;50.698;13.322;2023-02-12T05:02:51;3.00;99.90
62904;DHT22;49000;50.698;13.322;2023-02-12T05:05:16;3.30;99.90
62904;DHT22;49000;50.698;13.322;2023-02-12T05:07:42;3.40;99.90
62904;DHT22;49000;50.698;13.322;2023-02-12T05:10:08;3.30;99.90
62904;DHT22;49000;50.698;13.322;2023-02-12T05:12:33;3.50;99.90
62904;DHT22;49000;50.698;13.322;2023-02-12T05:14:59;3.30;99.90
62904;DHT22;49000;50.698;13.322;2023-02-12T05:17:24;3.50;99.90
62904;DHT22;49000;50.698;13.322;2023-02-12T05:19:50;3.60;99.90
62904;DHT22;49000;50.698;13.322;2023-02-12T05:22:15;3.40;99.90
62904;DHT22;49000;50.698;13.322;2023-02-12T05:24:41;3.50;99.90
62904;DHT22;49000;50.698;13.322;2023-02-12T05:27:07;3.40;99.90
62904;DHT22;49000;50.698;13.322;2023-02-12T05:29:34;3.50;99.90
62904;DHT22;49000;50.698;13.322;2023-02-12T05:31:59;3.50;99.90
62904;DHT22;49000;50.698;13.322;2023-02-12T05:34:25;3.30;99.90
62904;DHT22;49000;50.698;13.322;2023-02-12T05:36:50;2.90;99.90
62904;DHT22;49000;50.698;13.322;2023-02-12T05:39:16;3.00;99.90
62904;DHT22;49000;50.698;13.322;2023-02-12T05:41:41;3.60;99.90
62904;DHT22;49000;50.698;13.322;2023-02-12T05:44:07;3.40;99.90
62904;DHT22;49000;50.698;13.322;2023-02-12T05:46:32;3.20;99.90
62904;DHT22;49000;50.698;13.322;2023-02-12T05:48:58;3.10;99.90
62904;DHT22;49000;50.698;13.322;2023-02-12T05:51:25;3.40;99.90
62904;DHT22;49000;50.698;13.322;2023-02-12T05:53:54;3.10;99.90
62904;DHT22;49000;50.698;13.322;2023-02-12T05:56:26;3.50;99.90
62904;DHT22;49000;50.698;13.322;2023-02-12T05:58:57;3.20;99.90
62904;DHT22;49000;50.698;13.322;2023-02-12T06:01:26;3.40;99.90
62904;DHT22;49000;50.698;13.322;2023-02-12T06:03:52;3.30;99.90
62904;DHT22;49000;50.698;13.322;2023-02-12T06:06:18;3.50;99.90
62904;DHT22;49000;50.698;13.322;2023-02-12T06:08:47;3.20;99.90
62904;DHT22;49000;50.698;13.322;2023-02-12T06:11:13;3.60;99.90
62904;DHT22;49000;50.698;13.322;2023-02-12T06:13:40;3.60;99.90
62904;DHT22;49000;50.698;13.322;2023-02-12T06:16:05;3.30;99.90
62904;DHT22;49000;50.698;13.322;2023-02-12T06:18:34;3.50;99.90
62904;DHT22;49000;50.698;13.322;2023-02-12T06:21:02;3.60;99.90
62904;DHT22;49000;50.698;13.322;2023-02-12T06:23:28;3.40;99.90
62904;DHT22;49000;50.698;13.322;2023-02-12T06:25:55;3.00;99.90
62904;DHT22;49000;50.698;13.322;2023-02-12T06:28:21;3.70;99.90
62904;DHT22;49000;50.698;13.322;2023-02-12T06:30:47;3.50;99.90
62904;DHT22;49000;50.698;13.322;2023-02-12T06:33:12;3.00;99.90
62904;DHT22;49000;50.698;13.322;2023-02-12T06:35:38;3.70;99.90
62904;DHT22;49000;50.698;13.322;2023-02-12T06:38:04;3.70;99.90
62904;DHT22;49000;50.698;13.322;2023-02-12T06:40:30;3.50;99.90
62904;DHT22;49000;50.698;13.322;2023-02-12T06:42:55;3.20;99.90
62904;DHT22;49000;50.698;13.322;2023-02-12T06:45:21;3.70;99.90
62904;DHT22;49000;50.698;13.322;2023-02-12T06:47:46;3.20;99.90
62904;DHT22;49000;50.698;13.322;2023-02-12T06:50:12;3.60;99.90
62904;DHT22;49000;50.698;13.322;2023-02-12T06:52:38;3.60;99.90
62904;DHT22;49000;50.698;13.322;2023-02-12T06:55:03;3.50;99.90
62904;DHT22;49000;50.698;13.322;2023-02-12T06:57:29;3.60;99.90
62904;DHT22;49000;50.698;13.322;2023-02-12T06:59:55;3.70;99.90
62904;DHT22;49000;50.698;13.322;2023-02-12T07:02:21;3.20;99.90
62904;DHT22;49000;50.698;13.322;2023-02-12T07:04:46;3.40;99.90
62904;DHT22;49000;50.698;13.322;2023-02-12T07:07:12;3.40;99.90
62904;DHT22;49000;50.698;13.322;2023-02-12T07:09:37;3.10;99.90
62904;DHT22;49000;50.698;13.322;2023-02-12T07:12:03;3.70;99.90
62904;DHT22;49000;50.698;13.322;2023-02-12T07:14:28;3.60;99.90
62904;DHT22;49000;50.698;13.322;2023-02-12T07:16:54;3.70;99.90
62904;DHT22;49000;50.698;13.322;2023-02-12T07:19:20;3.70;99.90
62904;DHT22;49000;50.698;13.322;2023-02-12T07:21:46;3.90;99.90
62904;DHT22;49000;50.698;13.322;2023-02-12T07:24:13;3.80;99.90
62904;DHT22;49000;50.698;13.322;2023-02-12T07:26:39;3.80;99.90
62904;DHT22;49000;50.698;13.322;2023-02-12T07:29:05;4.10;99.90
62904;DHT22;49000;50.698;13.322;2023-02-12T07:31:31;3.60;99.90
62904;DHT22;49000;50.698;13.322;2023-02-12T07:33:58;4.10;99.90
62904;DHT22;49000;50.698;13.322;2023-02-12T07:36:25;3.60;99.90
62904;DHT22;49000;50.698;13.322;2023-02-12T07:38:51;4.10;99.90
62904;DHT22;49000;50.698;13.322;2023-02-12T07:41:19;4.00;99.90
62904;DHT22;49000;50.698;13.322;2023-02-12T07:43:47;4.00;99.90
62904;DHT22;49000;50.698;13.322;2023-02-12T07:46:19;3.80;99.90
62904;DHT22;49000;50.698;13.322;2023-02-12T07:48:46;4.10;99.90
62904;DHT22;49000;50.698;13.322;2023-02-12T07:51:14;4.10;99.90
62904;DHT22;49000;50.698;13.322;2023-02-12T07:53:41;4.10;99.90
62904;DHT22;49000;50.698;13.322;2023-02-12T07:56:15;4.30;99.90
62904;DHT22;49000;50.698;13.322;2023-02-12T07:58:43;4.20;99.90
62904;DHT22;49000;50.698;13.322;2023-02-12T08:03:40;4.20;99.90
62904;DHT22;49000;50.698;13.322;2023-02-12T08:06:10;3.90;99.90
62904;DHT22;49000;50.698;13.322;2023-02-12T08:08:36;4.20;99.90
62904;DHT22;49000;50.698;13.322;2023-02-12T08:11:04;4.30;99.90
62904;DHT22;49000;50.698;13.322;2023-02-12T08:13:30;4.20;99.90
62904;DHT22;49000;50.698;13.322;2023-02-12T08:16:07;4.20;99.90
62904;DHT22;49000;50.698;13.322;2023-02-12T08:18:34;4.40;99.90
62904;DHT22;49000;50.698;13.322;2023-02-12T08:21:16;4.30;99.90
62904;DHT22;49000;50.698;13.322;2023-02-12T08:23:43;4.50;99.90
62904;DHT22;49000;50.698;13.322;2023-02-12T08:26:11;4.40;99.90
62904;DHT22;49000;50.698;13.322;2023-02-12T08:28:39;4.20;99.90
62904;DHT22;49000;50.698;13.322;2023-02-12T08:31:09;4.40;99.90
62904;DHT22;49000;50.698;13.322;2023-02-12T08:33:35;4.10;99.90
62904;DHT22;49000;50.698;13.322;2023-02-12T08:36:06;4.40;99.90
62904;DHT22;49000;50.698;13.322;2023-02-12T08:38:32;4.50;99.90
62904;DHT22;49000;50.698;13.322;2023-02-12T08:41:02;4.10;99.90
62904;DHT22;49000;50.698;13.322;2023-02-12T08:43:29;4.70;99.90
62904;DHT22;49000;50.698;13.322;2023-02-12T08:45:59;4.70;99.90
62904;DHT22;49000;50.698;13.322;2023-02-12T08:48:25;4.80;99.90
62904;DHT22;49000;50.698;13.322;2023-02-12T08:50:50;4.70;99.90
62904;DHT22;49000;50.698;13.322;2023-02-12T08:53:15;4.50;99.90
62904;DHT22;49000;50.698;13.322;2023-02-12T08:55:47;4.90;99.90
62904;DHT22;49000;50.698;13.322;2023-02-12T08:58:14;4.90;99.90
62904;DHT22;49000;50.698;13.322;2023-02-12T09:00:40;4.80;99.90
62904;DHT22;49000;50.698;13.322;2023-02-12T09:03:05;4.40;99.90
62904;DHT22;49000;50.698;13.322;2023-02-12T09:05:30;4.50;99.90
62904;DHT22;49000;50.698;13.322;2023-02-12T09:07:56;4.80;99.90
62904;DHT22;49000;50.698;13.322;2023-02-12T09:10:21;4.50;99.90
62904;DHT22;49000;50.698;13.322;2023-02-12T09:12:47;5.00;99.90
62904;DHT22;49000;50.698;13.322;2023-02-12T09:15:12;4.90;99.90
62904;DHT22;49000;50.698;13.322;2023-02-12T09:17:38;4.90;99.90
62904;DHT22;49000;50.698;13.322;2023-02-12T09:20:06;4.90;99.90
62904;DHT22;49000;50.698;13.322;2023-02-12T09:22:31;5.00;99.90
62904;DHT22;49000;50.698;13.322;2023-02-12T09:24:57;4.80;99.90
62904;DHT22;49000;50.698;13.322;2023-02-12T09:27:22;4.40;99.90
62904;DHT22;49000;50.698;13.322;2023-02-12T09:29:48;4.40;99.90
62904;DHT22;49000;50.698;13.322;2023-02-12T09:32:13;4.60;99.90
62904;DHT22;49000;50.698;13.322;2023-02-12T09:34:39;4.40;99.90
62904;DHT22;49000;50.698;13.322;2023-02-12T09:37:04;5.20;99.90
62904;DHT22;49000;50.698;13.322;2023-02-12T09:39:30;4.60;99.90
62904;DHT22;49000;50.698;13.322;2023-02-12T09:45:03;5.00;99.90
62904;DHT22;49000;50.698;13.322;2023-02-12T09:47:51;5.00;99.90
62904;DHT22;49000;50.698;13.322;2023-02-12T09:50:29;5.10;99.90
62904;DHT22;49000;50.698;13.322;2023-02-12T09:52:57;5.10;99.90
62904;DHT22;49000;50.698;13.322;2023-02-12T09:55:26;5.20;99.90
62904;DHT22;49000;50.698;13.322;2023-02-12T09:57:53;5.40;99.90
62904;DHT22;49000;50.698;13.322;2023-02-12T10:00:27;5.00;99.90
62904;DHT22;49000;50.698;13.322;2023-02-12T10:02:55;4.90;99.90
62904;DHT22;49000;50.698;13.322;2023-02-12T10:05:25;5.30;99.90
62904;DHT22;49000;50.698;13.322;2023-02-12T10:16:48;5.30;99.90
62904;DHT22;49000;50.698;13.322;2023-02-12T10:22:03;5.70;99.90
62904;DHT22;49000;50.698;13.322;2023-02-12T10:24:47;5.70;99.90
62904;DHT22;49000;50.698;13.322;2023-02-12T10:27:16;5.80;99.90
62904;DHT22;49000;50.698;13.322;2023-02-12T10:29:45;5.60;99.90
62904;DHT22;49000;50.698;13.322;2023-02-12T10:32:27;5.80;99.90
62904;DHT22;49000;50.698;13.322;2023-02-12T10:34:55;5.50;99.90
62904;DHT22;49000;50.698;13.322;2023-02-12T10:37:36;5.60;99.90
62904;DHT22;49000;50.698;13.322;2023-02-12T10:40:26;6.10;99.90
62904;DHT22;49000;50.698;13.322;2023-02-12T10:42:55;6.00;99.90
62904;DHT22;49000;50.698;13.322;2023-02-12T10:45:37;5.70;99.90
62904;DHT22;49000;50.698;13.322;2023-02-12T10:48:22;6.00;99.90
62904;DHT22;49000;50.698;13.322;2023-02-12T10:53:31;5.80;99.90
62904;DHT22;49000;50.698;13.322;2023-02-12T10:58:42;5.50;99.90
62904;DHT22;49000;50.698;13.322;2023-02-12T11:01:28;5.40;99.90
62904;DHT22;49000;50.698;13.322;2023-02-12T11:03:55;5.80;99.90
62904;DHT22;49000;50.698;13.322;2023-02-12T11:06:27;5.60;99.90
62904;DHT22;49000;50.698;13.322;2023-02-12T11:08:53;5.80;99.90
62904;DHT22;49000;50.698;13.322;2023-02-12T11:11:25;6.30;99.90
62904;DHT22;49000;50.698;13.322;2023-02-12T11:14:14;6.30;99.90
62904;DHT22;49000;50.698;13.322;2023-02-12T11:16:51;6.00;99.90
62904;DHT22;49000;50.698;13.322;2023-02-12T11:19:28;5.80;99.90
62904;DHT22;49000;50.698;13.322;2023-02-12T11:22:12;6.10;99.90
62904;DHT22;49000;50.698;13.322;2023-02-12T11:24:43;5.90;99.90
62904;DHT22;49000;50.698;13.322;2023-02-12T11:29:44;6.40;99.90
62904;DHT22;49000;50.698;13.322;2023-02-12T11:32:17;6.20;99.90
62904;DHT22;49000;50.698;13.322;2023-02-12T11:34:42;6.40;99.90
62904;DHT22;49000;50.698;13.322;2023-02-12T11:37:17;6.30;99.90
62904;DHT22;49000;50.698;13.322;2023-02-12T11:39:47;6.30;99.90
62904;DHT22;49000;50.698;13.322;2023-02-12T11:42:17;5.80;99.90
62904;DHT22;49000;50.698;13.322;2023-02-12T11:44:57;6.10;99.90
62904;DHT22;49000;50.698;13.322;2023-02-12T11:47:31;5.90;99.90
62904;DHT22;49000;50.698;13.322;2023-02-12T11:50:24;6.00;99.90
62904;DHT22;49000;50.698;13.322;2023-02-12T11:52:53;5.90;99.90
62904;DHT22;49000;50.698;13.322;2023-02-12T11:55:23;5.80;99.90
62904;DHT22;49000;50.698;13.322;2023-02-12T11:58:00;6.10;99.90
62904;DHT22;49000;50.698;13.322;2023-02-12T12:00:41;6.00;99.90
62904;DHT22;49000;50.698;13.322;2023-02-12T12:03:17;6.40;99.90
62904;DHT22;49000;50.698;13.322;2023-02-12T12:05:51;6.20;99.90
62904;DHT22;49000;50.698;13.322;2023-02-12T12:08:28;6.20;99.90
62904;DHT22;49000;50.698;13.322;2023-02-12T12:11:18;6.30;99.90
62904;DHT22;49000;50.698;13.322;2023-02-12T12:13:56;6.50;99.90
62904;DHT22;49000;50.698;13.322;2023-02-12T12:16:41;6.20;99.90
62904;DHT22;49000;50.698;13.322;2023-02-12T12:19:31;6.50;99.90
62904;DHT22;49000;50.698;13.322;2023-02-12T12:25:04;6.50;99.90
62904;DHT22;49000;50.698;13.322;2023-02-12T12:27:51;6.30;99.90
62904;DHT22;49000;50.698;13.322;2023-02-12T12:30:52;5.90;99.90
62904;DHT22;49000;50.698;13.322;2023-02-12T12:33:37;6.20;99.90
62904;DHT22;49000;50.698;13.322;2023-02-12T12:38:52;6.40;99.90
62904;DHT22;49000;50.698;13.322;2023-02-12T12:44:58;6.30;99.90
62904;DHT22;49000;50.698;13.322;2023-02-12T12:52:55;6.10;99.90
62904;DHT22;49000;50.698;13.322;2023-02-12T13:01:47;6.50;99.90
62904;DHT22;49000;50.698;13.322;2023-02-12T13:04:46;6.60;99.90
62904;DHT22;49000;50.698;13.322;2023-02-12T13:18:31;6.20;99.90
62904;DHT22;49000;50.698;13.322;2023-02-12T13:26:48;6.30;99.90
62904;DHT22;49000;50.698;13.322;2023-02-12T13:29:24;6.10;99.90
62904;DHT22;49000;50.698;13.322;2023-02-12T13:31:55;6.10;99.90
62904;DHT22;49000;50.698;13.322;2023-02-12T13:34:21;6.30;99.90
62904;DHT22;49000;50.698;13.322;2023-02-12T13:36:50;6.20;99.90
62904;DHT22;49000;50.698;13.322;2023-02-12T13:39:37;6.00;99.90
62904;DHT22;49000;50.698;13.322;2023-02-12T13:44:56;6.00;99.90
62904;DHT22;49000;50.698;13.322;2023-02-12T13:50:27;6.20;99.90
62904;DHT22;49000;50.698;13.322;2023-02-12T13:55:45;5.90;99.90
62904;DHT22;49000;50.698;13.322;2023-02-12T14:01:15;5.90;99.90
62904;DHT22;49000;50.698;13.322;2023-02-12T14:04:26;6.00;99.90
62904;DHT22;49000;50.698;13.322;2023-02-12T14:06:58;5.90;99.90
62904;DHT22;49000;50.698;13.322;2023-02-12T14:09:38;5.90;99.90
62904;DHT22;49000;50.698;13.322;2023-02-12T14:12:29;5.90;99.90
62904;DHT22;49000;50.698;13.322;2023-02-12T14:15:15;5.80;99.90
62904;DHT22;49000;50.698;13.322;2023-02-12T14:17:55;5.90;99.90
62904;DHT22;49000;50.698;13.322;2023-02-12T14:20:37;5.40;99.90
62904;DHT22;49000;50.698;13.322;2023-02-12T14:23:27;6.10;99.90
62904;DHT22;49000;50.698;13.322;2023-02-12T14:26:09;5.80;99.90
62904;DHT22;49000;50.698;13.322;2023-02-12T14:28:58;5.70;99.90
62904;DHT22;49000;50.698;13.322;2023-02-12T14:31:35;5.90;99.90
62904;DHT22;49000;50.698;13.322;2023-02-12T14:39:03;5.80;99.90
62904;DHT22;49000;50.698;13.322;2023-02-12T14:41:32;5.40;99.90
62904;DHT22;49000;50.698;13.322;2023-02-12T14:46:52;5.70;99.90
62904;DHT22;49000;50.698;13.322;2023-02-12T14:52:11;5.70;99.90
62904;DHT22;49000;50.698;13.322;2023-02-12T14:54:53;5.80;99.90
62904;DHT22;49000;50.698;13.322;2023-02-12T14:57:24;5.60;99.90
62904;DHT22;49000;50.698;13.322;2023-02-12T14:59:54;5.70;99.90
62904;DHT22;49000;50.698;13.322;2023-02-12T15:02:25;5.50;99.90
62904;DHT22;49000;50.698;13.322;2023-02-12T15:04:53;5.60;99.90
62904;DHT22;49000;50.698;13.322;2023-02-12T15:07:36;5.60;99.90
62904;DHT22;49000;50.698;13.322;2023-02-12T15:10:16;5.60;99.90
62904;DHT22;49000;50.698;13.322;2023-02-12T15:12:46;5.50;99.90
62904;DHT22;49000;50.698;13.322;2023-02-12T15:15:39;5.00;99.90
62904;DHT22;49000;50.698;13.322;2023-02-12T15:18:23;5.40;99.90
62904;DHT22;49000;50.698;13.322;2023-02-12T15:20:58;5.50;99.90
62904;DHT22;49000;50.698;13.322;2023-02-12T15:23:39;4.90;99.90
62904;DHT22;49000;50.698;13.322;2023-02-12T15:26:14;4.90;99.90
62904;DHT22;49000;50.698;13.322;2023-02-12T15:28:41;5.40;99.90
62904;DHT22;49000;50.698;13.322;2023-02-12T15:31:08;5.10;99.90
62904;DHT22;49000;50.698;13.322;2023-02-12T15:33:39;5.10;99.90
62904;DHT22;49000;50.698;13.322;2023-02-12T15:36:07;5.10;99.90
62904;DHT22;49000;50.698;13.322;2023-02-12T15:38:37;5.20;99.90
62904;DHT22;49000;50.698;13.322;2023-02-12T15:41:07;5.10;99.90
62904;DHT22;49000;50.698;13.322;2023-02-12T15:43:39;4.90;99.90
62904;DHT22;49000;50.698;13.322;2023-02-12T15:46:10;5.20;99.90
62904;DHT22;49000;50.698;13.322;2023-02-12T15:48:39;4.50;99.90
62904;DHT22;49000;50.698;13.322;2023-02-12T15:51:28;4.50;99.90
62904;DHT22;49000;50.698;13.322;2023-02-12T15:53:55;5.00;99.90
62904;DHT22;49000;50.698;13.322;2023-02-12T15:56:23;4.70;99.90
62904;DHT22;49000;50.698;13.322;2023-02-12T15:58:54;4.40;99.90
62904;DHT22;49000;50.698;13.322;2023-02-12T16:01:23;4.80;99.90
62904;DHT22;49000;50.698;13.322;2023-02-12T16:03:58;4.30;99.90
62904;DHT22;49000;50.698;13.322;2023-02-12T16:06:26;4.80;99.90
62904;DHT22;49000;50.698;13.322;2023-02-12T16:09:34;4.60;99.90
62904;DHT22;49000;50.698;13.322;2023-02-12T16:11:55;4.60;99.90
62904;DHT22;49000;50.698;13.322;2023-02-12T16:14:32;4.70;99.90
62904;DHT22;49000;50.698;13.322;2023-02-12T16:17:00;4.30;99.90
62904;DHT22;49000;50.698;13.322;2023-02-12T16:19:30;4.10;99.90
62904;DHT22;49000;50.698;13.322;2023-02-12T16:24:53;4.50;99.90
62904;DHT22;49000;50.698;13.322;2023-02-12T16:27:23;4.00;99.90
62904;DHT22;49000;50.698;13.322;2023-02-12T16:29:52;3.80;99.90
62904;DHT22;49000;50.698;13.322;2023-02-12T16:32:33;3.80;99.90
62904;DHT22;49000;50.698;13.322;2023-02-12T16:40:11;4.00;99.90
62904;DHT22;49000;50.698;13.322;2023-02-12T16:50:26;3.90;99.90
62904;DHT22;49000;50.698;13.322;2023-02-12T16:53:06;4.00;99.90
62904;DHT22;49000;50.698;13.322;2023-02-12T16:55:33;3.70;99.90
62904;DHT22;49000;50.698;13.322;2023-02-12T16:57:59;3.80;99.90
62904;DHT22;49000;50.698;13.322;2023-02-12T17:00:25;3.80;99.90
62904;DHT22;49000;50.698;13.322;2023-02-12T17:02:53;3.40;99.90
62904;DHT22;49000;50.698;13.322;2023-02-12T17:05:19;3.90;99.90
62904;DHT22;49000;50.698;13.322;2023-02-12T17:07:47;3.80;99.90
62904;DHT22;49000;50.698;13.322;2023-02-12T17:10:13;3.30;99.90
62904;DHT22;49000;50.698;13.322;2023-02-12T17:12:47;3.50;99.90
62904;DHT22;49000;50.698;13.322;2023-02-12T17:15:22;3.70;99.90
62904;DHT22;49000;50.698;13.322;2023-02-12T17:17:49;3.90;99.90
62904;DHT22;49000;50.698;13.322;2023-02-12T17:20:14;3.30;99.90
62904;DHT22;49000;50.698;13.322;2023-02-12T17:22:45;3.60;99.90
62904;DHT22;49000;50.698;13.322;2023-02-12T17:25:12;3.60;99.90
62904;DHT22;49000;50.698;13.322;2023-02-12T17:27:38;3.60;99.90
62904;DHT22;49000;50.698;13.322;2023-02-12T17:30:04;3.60;99.90
62904;DHT22;49000;50.698;13.322;2023-02-12T17:32:31;3.60;99.90
62904;DHT22;49000;50.698;13.322;2023-02-12T17:34:57;3.70;99.90
62904;DHT22;49000;50.698;13.322;2023-02-12T17:37:22;3.40;99.90
62904;DHT22;49000;50.698;13.322;2023-02-12T17:39:49;3.10;99.90
62904;DHT22;49000;50.698;13.322;2023-02-12T17:42:15;3.30;99.90
62904;DHT22;49000;50.698;13.322;2023-02-12T17:44:40;3.50;99.90
62904;DHT22;49000;50.698;13.322;2023-02-12T17:47:06;3.60;99.90
62904;DHT22;49000;50.698;13.322;2023-02-12T17:49:32;3.50;99.90
62904;DHT22;49000;50.698;13.322;2023-02-12T17:51:58;3.50;99.90
62904;DHT22;49000;50.698;13.322;2023-02-12T17:54:23;3.50;99.90
62904;DHT22;49000;50.698;13.322;2023-02-12T17:56:49;3.40;99.90
62904;DHT22;49000;50.698;13.322;2023-02-12T17:59:14;3.40;99.90
62904;DHT22;49000;50.698;13.322;2023-02-12T18:01:40;3.40;99.90
62904;DHT22;49000;50.698;13.322;2023-02-12T18:04:05;3.50;99.90